sensor_id;sensor_type;location;lat;lon;timestamp;pressure;altitude;pressure_sealevel;temperature
13304;BMP280;6720;51.958;4.540;2022-08-19T00:01:28;101171.47;;;18.23
13304;BMP280;6720;51.958;4.540;2022-08-19T00:03:55;101185.31;;;18.30
13304;BMP280;6720;51.958;4.540;2022-08-19T00:06:20;101178.19;;;18.32
13304;BMP280;6720;51.958;4.540;2022-08-19T00:08:46;101178.31;;;18.29
13304;BMP280;6720;51.958;4.540;2022-08-19T00:11:11;101176.31;;;18.34
13304;BMP280;6720;51.958;4.540;2022-08-19T00:13:37;101160.47;;;18.12
13304;BMP280;6720;51.958;4.540;2022-08-19T00:16:05;101182.13;;;18.22
13304;BMP280;6720;51.958;4.540;2022-08-19T00:18:31;101186.53;;;18.23
13304;BMP280;6720;51.958;4.540;2022-08-19T00:20:57;101189.69;;;18.11
13304;BMP280;6720;51.958;4.540;2022-08-19T00:23:23;101193.28;;;18.10
13304;BMP280;6720;51.958;4.540;2022-08-19T00:25:48;101206.50;;;18.10
13304;BMP280;6720;51.958;4.540;2022-08-19T00:28:13;101199.31;;;18.13
13304;BMP280;6720;51.958;4.540;2022-08-19T00:30:39;101206.44;;;18.11
13304;BMP280;6720;51.958;4.540;2022-08-19T00:33:25;101196.56;;;18.15
13304;BMP280;6720;51.958;4.540;2022-08-19T00:36:18;101196.56;;;18.15
13304;BMP280;6720;51.958;4.540;2022-08-19T00:42:30;101196.44;;;18.18
13304;BMP280;6720;51.958;4.540;2022-08-19T00:48:38;101178.38;;;18.07
13304;BMP280;6720;51.958;4.540;2022-08-19T00:51:41;101191.56;;;18.09
13304;BMP280;6720;51.958;4.540;2022-08-19T00:54:42;101194.19;;;18.09
13304;BMP280;6720;51.958;4.540;2022-08-19T00:57:53;101202.03;;;18.12
13304;BMP280;6720;51.958;4.540;2022-08-19T01:00:53;101199.44;;;18.10
13304;BMP280;6720;51.958;4.540;2022-08-19T01:03:28;101197.84;;;18.06
13304;BMP280;6720;51.958;4.540;2022-08-19T01:05:54;101198.75;;;18.05
13304;BMP280;6720;51.958;4.540;2022-08-19T01:08:21;101204.81;;;18.09
13304;BMP280;6720;51.958;4.540;2022-08-19T01:10:49;101206.56;;;18.08
13304;BMP280;6720;51.958;4.540;2022-08-19T01:13:16;101205.97;;;18.02
13304;BMP280;6720;51.958;4.540;2022-08-19T01:15:46;101208.50;;;18.05
13304;BMP280;6720;51.958;4.540;2022-08-19T01:18:14;101215.69;;;18.01
13304;BMP280;6720;51.958;4.540;2022-08-19T01:20:41;101207.63;;;18.04
13304;BMP280;6720;51.958;4.540;2022-08-19T01:23:07;101205.97;;;18.02
13304;BMP280;6720;51.958;4.540;2022-08-19T01:25:45;101204.97;;;18.04
13304;BMP280;6720;51.958;4.540;2022-08-19T01:28:24;101196.09;;;18.05
13304;BMP280;6720;51.958;4.540;2022-08-19T01:30:53;101198.84;;;18.04
13304;BMP280;6720;51.958;4.540;2022-08-19T01:33:20;101198.97;;;18.01
13304;BMP280;6720;51.958;4.540;2022-08-19T01:35:46;101202.16;;;18.09
13304;BMP280;6720;51.958;4.540;2022-08-19T01:38:25;101204.25;;;18.01
13304;BMP280;6720;51.958;4.540;2022-08-19T01:40:51;101209.91;;;18.13
13304;BMP280;6720;51.958;4.540;2022-08-19T01:43:17;101214.09;;;18.19
13304;BMP280;6720;51.958;4.540;2022-08-19T01:45:44;101187.72;;;18.16
13304;BMP280;6720;51.958;4.540;2022-08-19T01:48:09;101202.59;;;18.40
13304;BMP280;6720;51.958;4.540;2022-08-19T01:50:36;101204.31;;;18.61
13304;BMP280;6720;51.958;4.540;2022-08-19T01:53:05;101193.19;;;18.53
13304;BMP280;6720;51.958;4.540;2022-08-19T01:55:30;101193.03;;;18.56
13304;BMP280;6720;51.958;4.540;2022-08-19T01:57:58;101182.59;;;18.53
13304;BMP280;6720;51.958;4.540;2022-08-19T02:00:26;101192.13;;;18.57
13304;BMP280;6720;51.958;4.540;2022-08-19T02:02:52;101191.56;;;18.49
13304;BMP280;6720;51.958;4.540;2022-08-19T02:05:18;101193.31;;;18.50
13304;BMP280;6720;51.958;4.540;2022-08-19T02:07:46;101171.38;;;18.47
13304;BMP280;6720;51.958;4.540;2022-08-19T02:10:15;101180.97;;;18.49
13304;BMP280;6720;51.958;4.540;2022-08-19T02:12:41;101193.72;;;18.61
13304;BMP280;6720;51.958;4.540;2022-08-19T02:15:07;101184.00;;;18.60
13304;BMP280;6720;51.958;4.540;2022-08-19T02:17:34;101198.59;;;18.70
13304;BMP280;6720;51.958;4.540;2022-08-19T02:19:59;101190.50;;;18.73
13304;BMP280;6720;51.958;4.540;2022-08-19T02:22:25;101192.22;;;18.74
13304;BMP280;6720;51.958;4.540;2022-08-19T02:24:52;101178.03;;;18.75
13304;BMP280;6720;51.958;4.540;2022-08-19T02:27:18;101183.06;;;18.81
13304;BMP280;6720;51.958;4.540;2022-08-19T02:29:45;101188.13;;;18.87
13304;BMP280;6720;51.958;4.540;2022-08-19T02:32:11;101191.66;;;18.86
13304;BMP280;6720;51.958;4.540;2022-08-19T02:34:36;101198.06;;;18.82
13304;BMP280;6720;51.958;4.540;2022-08-19T02:37:02;101192.59;;;18.85
13304;BMP280;6720;51.958;4.540;2022-08-19T02:39:27;101189.81;;;18.88
13304;BMP280;6720;51.958;4.540;2022-08-19T02:41:52;101188.25;;;18.84
13304;BMP280;6720;51.958;4.540;2022-08-19T02:44:20;101179.78;;;18.76
13304;BMP280;6720;51.958;4.540;2022-08-19T02:46:47;101167.28;;;18.78
13304;BMP280;6720;51.958;4.540;2022-08-19T02:49:13;101173.59;;;18.76
13304;BMP280;6720;51.958;4.540;2022-08-19T02:51:42;101169.00;;;18.79
13304;BMP280;6720;51.958;4.540;2022-08-19T02:54:09;101166.22;;;18.82
13304;BMP280;6720;51.958;4.540;2022-08-19T02:56:37;101162.56;;;18.85
13304;BMP280;6720;51.958;4.540;2022-08-19T02:59:04;101168.78;;;18.84
13304;BMP280;6720;51.958;4.540;2022-08-19T03:01:33;101147.19;;;18.73
13304;BMP280;6720;51.958;4.540;2022-08-19T03:04:01;101165.22;;;18.85
13304;BMP280;6720;51.958;4.540;2022-08-19T03:06:27;101162.72;;;18.82
13304;BMP280;6720;51.958;4.540;2022-08-19T03:08:53;101167.03;;;18.84
13304;BMP280;6720;51.958;4.540;2022-08-19T03:11:22;101157.47;;;18.80
13304;BMP280;6720;51.958;4.540;2022-08-19T03:13:49;101161.03;;;18.79
13304;BMP280;6720;51.958;4.540;2022-08-19T03:16:19;101150.38;;;18.81
13304;BMP280;6720;51.958;4.540;2022-08-19T03:18:45;101154.09;;;18.77
13304;BMP280;6720;51.958;4.540;2022-08-19T03:21:16;101151.94;;;18.85
13304;BMP280;6720;51.958;4.540;2022-08-19T03:23:42;101148.72;;;18.78
13304;BMP280;6720;51.958;4.540;2022-08-19T03:26:07;101151.94;;;18.66
13304;BMP280;6720;51.958;4.540;2022-08-19T03:28:33;101155.06;;;18.56
13304;BMP280;6720;51.958;4.540;2022-08-19T03:31:05;101150.34;;;18.62
13304;BMP280;6720;51.958;4.540;2022-08-19T03:33:34;101149.97;;;18.51
13304;BMP280;6720;51.958;4.540;2022-08-19T03:38:26;101160.09;;;18.62
13304;BMP280;6720;51.958;4.540;2022-08-19T03:40:52;101154.06;;;18.58
13304;BMP280;6720;51.958;4.540;2022-08-19T03:43:17;101154.56;;;18.66
13304;BMP280;6720;51.958;4.540;2022-08-19T03:45:43;101152.56;;;18.71
13304;BMP280;6720;51.958;4.540;2022-08-19T03:48:08;101158.81;;;18.70
13304;BMP280;6720;51.958;4.540;2022-08-19T03:50:39;101136.44;;;18.57
13304;BMP280;6720;51.958;4.540;2022-08-19T03:53:04;101151.78;;;18.69
13304;BMP280;6720;51.958;4.540;2022-08-19T03:55:41;101155.22;;;18.71
13304;BMP280;6720;51.958;4.540;2022-08-19T03:58:06;101154.97;;;18.77
13304;BMP280;6720;51.958;4.540;2022-08-19T04:00:32;101165.69;;;18.74
13304;BMP280;6720;51.958;4.540;2022-08-19T04:02:58;101165.31;;;18.63
13304;BMP280;6720;51.958;4.540;2022-08-19T04:05:24;101173.28;;;18.63
13304;BMP280;6720;51.958;4.540;2022-08-19T04:07:49;101181.97;;;18.67
13304;BMP280;6720;51.958;4.540;2022-08-19T04:10:14;101183.75;;;18.66
13304;BMP280;6720;51.958;4.540;2022-08-19T04:12:40;101183.88;;;18.63
13304;BMP280;6720;51.958;4.540;2022-08-19T04:15:05;101181.75;;;18.71
13304;BMP280;6720;51.958;4.540;2022-08-19T04:17:31;101175.66;;;18.69
13304;BMP280;6720;51.958;4.540;2022-08-19T04:19:57;101167.84;;;18.66
13304;BMP280;6720;51.958;4.540;2022-08-19T04:22:24;101178.31;;;18.69
13304;BMP280;6720;51.958;4.540;2022-08-19T04:24:50;101175.88;;;18.65
13304;BMP280;6720;51.958;4.540;2022-08-19T04:27:15;101176.75;;;18.65
13304;BMP280;6720;51.958;4.540;2022-08-19T04:29:40;101161.66;;;18.66
13304;BMP280;6720;51.958;4.540;2022-08-19T04:32:06;101180.03;;;18.70
13304;BMP280;6720;51.958;4.540;2022-08-19T04:34:31;101180.84;;;18.72
13304;BMP280;6720;51.958;4.540;2022-08-19T04:36:58;101166.56;;;18.75
13304;BMP280;6720;51.958;4.540;2022-08-19T04:39:27;101155.66;;;18.62
13304;BMP280;6720;51.958;4.540;2022-08-19T04:42:14;101175.38;;;18.75
13304;BMP280;6720;51.958;4.540;2022-08-19T04:44:58;101185.22;;;18.73
13304;BMP280;6720;51.958;4.540;2022-08-19T04:47:24;101157.31;;;18.65
13304;BMP280;6720;51.958;4.540;2022-08-19T04:49:49;101178.19;;;18.72
13304;BMP280;6720;51.958;4.540;2022-08-19T04:52:14;101178.69;;;18.80
13304;BMP280;6720;51.958;4.540;2022-08-19T04:54:40;101178.19;;;18.72
13304;BMP280;6720;51.958;4.540;2022-08-19T04:57:07;101175.91;;;18.83
13304;BMP280;6720;51.958;4.540;2022-08-19T04:59:35;101186.44;;;18.85
13304;BMP280;6720;51.958;4.540;2022-08-19T05:02:02;101180.41;;;18.81
13304;BMP280;6720;51.958;4.540;2022-08-19T05:04:27;101180.28;;;18.84
13304;BMP280;6720;51.958;4.540;2022-08-19T05:06:57;101182.81;;;18.87
13304;BMP280;6720;51.958;4.540;2022-08-19T05:09:22;101191.53;;;18.89
13304;BMP280;6720;51.958;4.540;2022-08-19T05:11:47;101187.69;;;18.96
13304;BMP280;6720;51.958;4.540;2022-08-19T05:14:16;101182.88;;;18.86
13304;BMP280;6720;51.958;4.540;2022-08-19T05:16:41;101181.44;;;18.97
13304;BMP280;6720;51.958;4.540;2022-08-19T05:19:07;101182.09;;;19.02
13304;BMP280;6720;51.958;4.540;2022-08-19T05:21:51;101173.47;;;18.97
13304;BMP280;6720;51.958;4.540;2022-08-19T05:24:35;101177.69;;;19.01
13304;BMP280;6720;51.958;4.540;2022-08-19T05:27:01;101176.50;;;19.08
13304;BMP280;6720;51.958;4.540;2022-08-19T05:29:28;101187.47;;;19.19
13304;BMP280;6720;51.958;4.540;2022-08-19T05:31:55;101190.00;;;19.22
13304;BMP280;6720;51.958;4.540;2022-08-19T05:34:22;101178.56;;;19.20
13304;BMP280;6720;51.958;4.540;2022-08-19T05:36:50;101174.47;;;19.13
13304;BMP280;6720;51.958;4.540;2022-08-19T05:39:19;101170.91;;;19.14
13304;BMP280;6720;51.958;4.540;2022-08-19T05:41:50;101163.59;;;19.19
13304;BMP280;6720;51.958;4.540;2022-08-19T05:44:16;101172.06;;;19.27
13304;BMP280;6720;51.958;4.540;2022-08-19T05:46:45;101174.47;;;19.13
13304;BMP280;6720;51.958;4.540;2022-08-19T05:49:15;101177.66;;;19.21
13304;BMP280;6720;51.958;4.540;2022-08-19T05:51:41;101182.03;;;19.22
13304;BMP280;6720;51.958;4.540;2022-08-19T05:54:07;101189.38;;;19.36
13304;BMP280;6720;51.958;4.540;2022-08-19T05:56:33;101183.81;;;19.22
13304;BMP280;6720;51.958;4.540;2022-08-19T05:59:02;101178.25;;;19.28
13304;BMP280;6720;51.958;4.540;2022-08-19T06:01:29;101178.13;;;19.31
13304;BMP280;6720;51.958;4.540;2022-08-19T06:03:54;101168.22;;;19.34
13304;BMP280;6720;51.958;4.540;2022-08-19T06:06:21;101174.94;;;19.41
13304;BMP280;6720;51.958;4.540;2022-08-19T06:08:47;101178.06;;;19.32
13304;BMP280;6720;51.958;4.540;2022-08-19T06:11:49;101167.72;;;19.26
13304;BMP280;6720;51.958;4.540;2022-08-19T06:14:21;101177.38;;;19.27
13304;BMP280;6720;51.958;4.540;2022-08-19T06:16:48;101180.47;;;19.37
13304;BMP280;6720;51.958;4.540;2022-08-19T06:19:16;101164.59;;;19.35
13304;BMP280;6720;51.958;4.540;2022-08-19T06:21:44;101180.59;;;19.34
13304;BMP280;6720;51.958;4.540;2022-08-19T06:24:12;101179.97;;;19.47
13304;BMP280;6720;51.958;4.540;2022-08-19T06:26:41;101178.22;;;19.46
13304;BMP280;6720;51.958;4.540;2022-08-19T06:29:09;101184.34;;;19.48
13304;BMP280;6720;51.958;4.540;2022-08-19T06:31:35;101175.50;;;19.66
13304;BMP280;6720;51.958;4.540;2022-08-19T06:34:03;101179.66;;;19.72
13304;BMP280;6720;51.958;4.540;2022-08-19T06:36:33;101176.34;;;19.67
13304;BMP280;6720;51.958;4.540;2022-08-19T06:39:06;101183.63;;;19.80
13304;BMP280;6720;51.958;4.540;2022-08-19T06:41:35;101178.34;;;19.97
13304;BMP280;6720;51.958;4.540;2022-08-19T06:44:00;101180.47;;;20.08
13304;BMP280;6720;51.958;4.540;2022-08-19T06:46:26;101174.94;;;20.12
13304;BMP280;6720;51.958;4.540;2022-08-19T06:48:52;101167.06;;;19.92
13304;BMP280;6720;51.958;4.540;2022-08-19T06:51:20;101177.25;;;20.01
13304;BMP280;6720;51.958;4.540;2022-08-19T06:53:47;101184.09;;;19.88
13304;BMP280;6720;51.958;4.540;2022-08-19T06:56:14;101177.09;;;20.04
13304;BMP280;6720;51.958;4.540;2022-08-19T06:58:40;101185.44;;;19.97
13304;BMP280;6720;51.958;4.540;2022-08-19T07:01:06;101171.34;;;20.13
13304;BMP280;6720;51.958;4.540;2022-08-19T07:03:34;101181.34;;;20.25
13304;BMP280;6720;51.958;4.540;2022-08-19T07:06:09;101191.38;;;20.20
13304;BMP280;6720;51.958;4.540;2022-08-19T07:08:36;101195.59;;;20.24
13304;BMP280;6720;51.958;4.540;2022-08-19T07:11:05;101180.19;;;20.48
13304;BMP280;6720;51.958;4.540;2022-08-19T07:13:32;101200.59;;;20.64
13304;BMP280;6720;51.958;4.540;2022-08-19T07:16:06;101199.56;;;20.67
13304;BMP280;6720;51.958;4.540;2022-08-19T07:18:31;101201.78;;;20.59
13304;BMP280;6720;51.958;4.540;2022-08-19T07:21:12;101196.22;;;20.46
13304;BMP280;6720;51.958;4.540;2022-08-19T07:23:38;101211.72;;;20.38
13304;BMP280;6720;51.958;4.540;2022-08-19T07:26:07;101202.94;;;20.53
13304;BMP280;6720;51.958;4.540;2022-08-19T07:28:33;101206.88;;;20.79
13304;BMP280;6720;51.958;4.540;2022-08-19T07:30:58;101206.47;;;20.86
13304;BMP280;6720;51.958;4.540;2022-08-19T07:33:27;101192.63;;;20.97
13304;BMP280;6720;51.958;4.540;2022-08-19T07:35:52;101202.25;;;20.82
13304;BMP280;6720;51.958;4.540;2022-08-19T07:38:17;101199.06;;;20.93
13304;BMP280;6720;51.958;4.540;2022-08-19T07:40:44;101211.19;;;20.98
13304;BMP280;6720;51.958;4.540;2022-08-19T07:43:10;101203.50;;;21.09
13304;BMP280;6720;51.958;4.540;2022-08-19T07:45:36;101208.25;;;21.03
13304;BMP280;6720;51.958;4.540;2022-08-19T07:48:01;101206.03;;;20.78
13304;BMP280;6720;51.958;4.540;2022-08-19T07:50:26;101201.66;;;20.77
13304;BMP280;6720;51.958;4.540;2022-08-19T07:52:52;101200.25;;;20.70
13304;BMP280;6720;51.958;4.540;2022-08-19T07:55:21;101208.38;;;20.84
13304;BMP280;6720;51.958;4.540;2022-08-19T07:57:47;101207.28;;;20.71
13304;BMP280;6720;51.958;4.540;2022-08-19T08:00:13;101225.53;;;20.79
13304;BMP280;6720;51.958;4.540;2022-08-19T08:02:39;101226.91;;;20.86
13304;BMP280;6720;51.958;4.540;2022-08-19T08:05:08;101220.97;;;20.98
13304;BMP280;6720;51.958;4.540;2022-08-19T08:07:52;101235.84;;;20.85
13304;BMP280;6720;51.958;4.540;2022-08-19T08:10:36;101231.53;;;20.82
13304;BMP280;6720;51.958;4.540;2022-08-19T08:13:03;101213.50;;;21.04
13304;BMP280;6720;51.958;4.540;2022-08-19T08:15:31;101223.25;;;21.21
13304;BMP280;6720;51.958;4.540;2022-08-19T08:17:56;101234.03;;;21.02
13304;BMP280;6720;51.958;4.540;2022-08-19T08:20:23;101218.66;;;20.90
13304;BMP280;6720;51.958;4.540;2022-08-19T08:22:48;101227.81;;;21.19
13304;BMP280;6720;51.958;4.540;2022-08-19T08:25:34;101231.09;;;21.39
13304;BMP280;6720;51.958;4.540;2022-08-19T08:28:00;101236.66;;;21.50
13304;BMP280;6720;51.958;4.540;2022-08-19T08:30:28;101241.81;;;21.22
13304;BMP280;6720;51.958;4.540;2022-08-19T08:32:54;101239.66;;;21.13
13304;BMP280;6720;51.958;4.540;2022-08-19T08:35:21;101246.50;;;21.50
13304;BMP280;6720;51.958;4.540;2022-08-19T08:37:48;101237.41;;;21.85
13304;BMP280;6720;51.958;4.540;2022-08-19T08:40:37;101240.69;;;21.75
13304;BMP280;6720;51.958;4.540;2022-08-19T08:43:26;101238.19;;;21.72
13304;BMP280;6720;51.958;4.540;2022-08-19T08:45:59;101245.47;;;21.99
13304;BMP280;6720;51.958;4.540;2022-08-19T08:48:34;101245.44;;;22.15
13304;BMP280;6720;51.958;4.540;2022-08-19T08:51:05;101245.44;;;22.15
13304;BMP280;6720;51.958;4.540;2022-08-19T08:53:34;101247.78;;;22.50
13304;BMP280;6720;51.958;4.540;2022-08-19T08:56:03;101242.66;;;22.47
13304;BMP280;6720;51.958;4.540;2022-08-19T08:58:45;101245.81;;;22.09
13304;BMP280;6720;51.958;4.540;2022-08-19T09:01:12;101228.41;;;22.17
13304;BMP280;6720;51.958;4.540;2022-08-19T09:03:40;101255.16;;;22.61
13304;BMP280;6720;51.958;4.540;2022-08-19T09:06:17;101247.97;;;23.19
13304;BMP280;6720;51.958;4.540;2022-08-19T09:09:05;101241.78;;;23.32
13304;BMP280;6720;51.958;4.540;2022-08-19T09:14:55;101239.38;;;23.70
13304;BMP280;6720;51.958;4.540;2022-08-19T09:17:28;101243.22;;;23.10
13304;BMP280;6720;51.958;4.540;2022-08-19T09:20:16;101251.25;;;23.38
13304;BMP280;6720;51.958;4.540;2022-08-19T09:22:43;101250.63;;;23.61
13304;BMP280;6720;51.958;4.540;2022-08-19T09:25:20;101242.28;;;23.25
13304;BMP280;6720;51.958;4.540;2022-08-19T09:27:48;101247.00;;;23.62
13304;BMP280;6720;51.958;4.540;2022-08-19T09:30:17;101246.25;;;23.46
13304;BMP280;6720;51.958;4.540;2022-08-19T09:32:43;101253.63;;;23.28
13304;BMP280;6720;51.958;4.540;2022-08-19T09:35:09;101258.47;;;23.08
13304;BMP280;6720;51.958;4.540;2022-08-19T09:37:34;101255.69;;;22.52
13304;BMP280;6720;51.958;4.540;2022-08-19T09:40:00;101244.16;;;22.95
13304;BMP280;6720;51.958;4.540;2022-08-19T09:42:25;101255.03;;;22.92
13304;BMP280;6720;51.958;4.540;2022-08-19T09:44:51;101263.31;;;22.87
13304;BMP280;6720;51.958;4.540;2022-08-19T09:47:16;101260.31;;;22.64
13304;BMP280;6720;51.958;4.540;2022-08-19T09:49:41;101255.78;;;22.94
13304;BMP280;6720;51.958;4.540;2022-08-19T09:52:10;101265.88;;;22.89
13304;BMP280;6720;51.958;4.540;2022-08-19T09:54:37;101262.69;;;23.26
13304;BMP280;6720;51.958;4.540;2022-08-19T09:57:03;101249.97;;;23.01
13304;BMP280;6720;51.958;4.540;2022-08-19T09:59:29;101259.22;;;23.66
13304;BMP280;6720;51.958;4.540;2022-08-19T10:01:55;101257.34;;;23.40
13304;BMP280;6720;51.958;4.540;2022-08-19T10:04:21;101256.31;;;23.42
13304;BMP280;6720;51.958;4.540;2022-08-19T10:06:48;101267.63;;;23.18
13304;BMP280;6720;51.958;4.540;2022-08-19T10:09:15;101269.72;;;23.13
13304;BMP280;6720;51.958;4.540;2022-08-19T10:11:43;101259.34;;;23.50
13304;BMP280;6720;51.958;4.540;2022-08-19T10:14:13;101259.06;;;23.41
13304;BMP280;6720;51.958;4.540;2022-08-19T10:16:38;101264.63;;;23.78
13304;BMP280;6720;51.958;4.540;2022-08-19T10:19:06;101260.75;;;23.70
13304;BMP280;6720;51.958;4.540;2022-08-19T10:21:32;101263.78;;;23.78
13304;BMP280;6720;51.958;4.540;2022-08-19T10:24:01;101254.72;;;24.07
13304;BMP280;6720;51.958;4.540;2022-08-19T10:26:32;101264.88;;;24.28
13304;BMP280;6720;51.958;4.540;2022-08-19T10:28:57;101253.59;;;24.50
13304;BMP280;6720;51.958;4.540;2022-08-19T10:31:25;101257.00;;;24.52
13304;BMP280;6720;51.958;4.540;2022-08-19T10:33:51;101261.47;;;24.39
13304;BMP280;6720;51.958;4.540;2022-08-19T10:36:25;101256.31;;;24.63
13304;BMP280;6720;51.958;4.540;2022-08-19T10:38:52;101259.06;;;24.22
13304;BMP280;6720;51.958;4.540;2022-08-19T10:41:20;101256.69;;;24.56
13304;BMP280;6720;51.958;4.540;2022-08-19T10:43:47;101251.03;;;24.61
13304;BMP280;6720;51.958;4.540;2022-08-19T10:46:15;101257.72;;;24.68
13304;BMP280;6720;51.958;4.540;2022-08-19T10:48:41;101258.59;;;25.06
13304;BMP280;6720;51.958;4.540;2022-08-19T10:51:08;101250.91;;;24.50
13304;BMP280;6720;51.958;4.540;2022-08-19T10:53:52;101248.53;;;24.72
13304;BMP280;6720;51.958;4.540;2022-08-19T10:56:18;101258.56;;;24.03
13304;BMP280;6720;51.958;4.540;2022-08-19T10:59:03;101254.34;;;24.13
13304;BMP280;6720;51.958;4.540;2022-08-19T11:01:29;101256.97;;;23.86
13304;BMP280;6720;51.958;4.540;2022-08-19T11:03:56;101259.31;;;23.64
13304;BMP280;6720;51.958;4.540;2022-08-19T11:06:23;101264.31;;;23.56
13304;BMP280;6720;51.958;4.540;2022-08-19T11:08:50;101245.72;;;23.41
13304;BMP280;6720;51.958;4.540;2022-08-19T11:11:16;101248.09;;;23.45
13304;BMP280;6720;51.958;4.540;2022-08-19T11:13:43;101255.25;;;23.45
13304;BMP280;6720;51.958;4.540;2022-08-19T11:16:21;101257.41;;;23.66
13304;BMP280;6720;51.958;4.540;2022-08-19T11:18:53;101261.50;;;23.58
13304;BMP280;6720;51.958;4.540;2022-08-19T11:21:22;101255.72;;;23.92
13304;BMP280;6720;51.958;4.540;2022-08-19T11:23:50;101266.47;;;23.64
13304;BMP280;6720;51.958;4.540;2022-08-19T11:26:17;101265.69;;;23.76
13304;BMP280;6720;51.958;4.540;2022-08-19T11:28:43;101251.16;;;23.94
13304;BMP280;6720;51.958;4.540;2022-08-19T11:31:17;101259.50;;;24.16
13304;BMP280;6720;51.958;4.540;2022-08-19T11:33:43;101260.38;;;24.29
13304;BMP280;6720;51.958;4.540;2022-08-19T11:36:09;101256.75;;;23.63
13304;BMP280;6720;51.958;4.540;2022-08-19T11:38:36;101256.31;;;23.97
13304;BMP280;6720;51.958;4.540;2022-08-19T11:41:05;101256.50;;;23.80
13304;BMP280;6720;51.958;4.540;2022-08-19T11:43:32;101254.88;;;24.18
13304;BMP280;6720;51.958;4.540;2022-08-19T11:45:58;101255.50;;;24.09
13304;BMP280;6720;51.958;4.540;2022-08-19T11:48:23;101255.16;;;23.87
13304;BMP280;6720;51.958;4.540;2022-08-19T11:50:50;101255.34;;;23.84
13304;BMP280;6720;51.958;4.540;2022-08-19T11:53:17;101258.44;;;23.78
13304;BMP280;6720;51.958;4.540;2022-08-19T11:55:43;101256.06;;;23.73
13304;BMP280;6720;51.958;4.540;2022-08-19T11:58:11;101259.16;;;24.08
13304;BMP280;6720;51.958;4.540;2022-08-19T12:00:38;101249.84;;;24.13
13304;BMP280;6720;51.958;4.540;2022-08-19T12:03:03;101263.28;;;23.99
13304;BMP280;6720;51.958;4.540;2022-08-19T12:05:28;101265.31;;;23.68
13304;BMP280;6720;51.958;4.540;2022-08-19T12:07:54;101258.44;;;23.78
13304;BMP280;6720;51.958;4.540;2022-08-19T12:10:20;101261.75;;;23.81
13304;BMP280;6720;51.958;4.540;2022-08-19T12:12:46;101246.78;;;23.93
13304;BMP280;6720;51.958;4.540;2022-08-19T12:15:12;101251.84;;;24.10
13304;BMP280;6720;51.958;4.540;2022-08-19T12:17:38;101257.44;;;24.46
13304;BMP280;6720;51.958;4.540;2022-08-19T12:20:04;101258.38;;;24.06
13304;BMP280;6720;51.958;4.540;2022-08-19T12:22:30;101259.19;;;23.94
13304;BMP280;6720;51.958;4.540;2022-08-19T12:24:55;101254.50;;;23.83
13304;BMP280;6720;51.958;4.540;2022-08-19T12:27:21;101265.91;;;24.13
13304;BMP280;6720;51.958;4.540;2022-08-19T12:29:47;101268.94;;;23.81
13304;BMP280;6720;51.958;4.540;2022-08-19T12:32:13;101255.34;;;23.98
13304;BMP280;6720;51.958;4.540;2022-08-19T12:34:38;101257.56;;;24.57
13304;BMP280;6720;51.958;4.540;2022-08-19T12:37:05;101252.00;;;24.21
13304;BMP280;6720;51.958;4.540;2022-08-19T12:39:41;101255.97;;;24.54
13304;BMP280;6720;51.958;4.540;2022-08-19T12:42:08;101253.31;;;24.80
13304;BMP280;6720;51.958;4.540;2022-08-19T12:44:35;101254.72;;;25.35
13304;BMP280;6720;51.958;4.540;2022-08-19T12:47:00;101244.81;;;25.73
13304;BMP280;6720;51.958;4.540;2022-08-19T12:49:28;101256.44;;;25.49
13304;BMP280;6720;51.958;4.540;2022-08-19T12:51:54;101255.16;;;24.67
13304;BMP280;6720;51.958;4.540;2022-08-19T12:54:19;101260.94;;;24.73
13304;BMP280;6720;51.958;4.540;2022-08-19T12:56:45;101254.31;;;24.79
13304;BMP280;6720;51.958;4.540;2022-08-19T12:59:10;101249.47;;;25.21
13304;BMP280;6720;51.958;4.540;2022-08-19T13:01:36;101252.91;;;25.23
13304;BMP280;6720;51.958;4.540;2022-08-19T13:04:02;101243.81;;;25.13
13304;BMP280;6720;51.958;4.540;2022-08-19T13:06:27;101246.56;;;25.49
13304;BMP280;6720;51.958;4.540;2022-08-19T13:08:54;101249.66;;;25.56
13304;BMP280;6720;51.958;4.540;2022-08-19T13:11:20;101257.56;;;26.06
13304;BMP280;6720;51.958;4.540;2022-08-19T13:13:50;101251.50;;;25.55
13304;BMP280;6720;51.958;4.540;2022-08-19T13:16:17;101252.22;;;25.57
13304;BMP280;6720;51.958;4.540;2022-08-19T13:18:45;101250.47;;;25.08
13304;BMP280;6720;51.958;4.540;2022-08-19T13:21:18;101245.31;;;24.92
13304;BMP280;6720;51.958;4.540;2022-08-19T13:23:46;101248.09;;;25.03
13304;BMP280;6720;51.958;4.540;2022-08-19T13:26:12;101247.00;;;24.93
13304;BMP280;6720;51.958;4.540;2022-08-19T13:28:39;101241.13;;;25.13
13304;BMP280;6720;51.958;4.540;2022-08-19T13:31:26;101237.34;;;24.65
13304;BMP280;6720;51.958;4.540;2022-08-19T13:34:11;101224.31;;;24.74
13304;BMP280;6720;51.958;4.540;2022-08-19T13:36:38;101221.88;;;24.56
13304;BMP280;6720;51.958;4.540;2022-08-19T13:39:05;101228.59;;;24.76
13304;BMP280;6720;51.958;4.540;2022-08-19T13:41:31;101231.69;;;24.70
13304;BMP280;6720;51.958;4.540;2022-08-19T13:43:57;101239.31;;;24.76
13304;BMP280;6720;51.958;4.540;2022-08-19T13:46:22;101232.22;;;24.75
13304;BMP280;6720;51.958;4.540;2022-08-19T13:48:47;101225.91;;;24.37
13304;BMP280;6720;51.958;4.540;2022-08-19T13:51:14;101226.81;;;24.50
13304;BMP280;6720;51.958;4.540;2022-08-19T13:53:42;101225.31;;;24.46
13304;BMP280;6720;51.958;4.540;2022-08-19T13:56:17;101223.94;;;24.65
13304;BMP280;6720;51.958;4.540;2022-08-19T13:58:44;101229.03;;;24.31
13304;BMP280;6720;51.958;4.540;2022-08-19T14:01:10;101206.81;;;23.90
13304;BMP280;6720;51.958;4.540;2022-08-19T14:03:36;101222.63;;;24.46
13304;BMP280;6720;51.958;4.540;2022-08-19T14:06:02;101222.81;;;24.30
13304;BMP280;6720;51.958;4.540;2022-08-19T14:08:27;101216.31;;;24.47
13304;BMP280;6720;51.958;4.540;2022-08-19T14:10:54;101217.72;;;23.87
13304;BMP280;6720;51.958;4.540;2022-08-19T14:13:21;101223.06;;;23.87
13304;BMP280;6720;51.958;4.540;2022-08-19T14:15:49;101223.69;;;24.04
13304;BMP280;6720;51.958;4.540;2022-08-19T14:18:16;101205.06;;;24.03
13304;BMP280;6720;51.958;4.540;2022-08-19T14:20:42;101223.44;;;24.21
13304;BMP280;6720;51.958;4.540;2022-08-19T14:23:08;101230.56;;;23.68
13304;BMP280;6720;51.958;4.540;2022-08-19T14:25:35;101231.50;;;23.81
13304;BMP280;6720;51.958;4.540;2022-08-19T14:28:02;101230.97;;;24.02
13304;BMP280;6720;51.958;4.540;2022-08-19T14:30:33;101234.38;;;24.04